sensor_id;sensor_type;location;lat;lon;timestamp;temperature;humidity
3190;DHT22;1606;51.946;10.558;2022-12-05T00:01:31;5.50;99.90
3190;DHT22;1606;51.946;10.558;2022-12-05T00:04:02;5.60;99.90
3190;DHT22;1606;51.946;10.558;2022-12-05T00:06:31;5.60;99.90
3190;DHT22;1606;51.946;10.558;2022-12-05T00:08:59;5.50;99.90
3190;DHT22;1606;51.946;10.558;2022-12-05T00:11:29;5.60;99.90
3190;DHT22;1606;51.946;10.558;2022-12-05T00:13:58;5.60;99.90
3190;DHT22;1606;51.946;10.558;2022-12-05T00:16:30;5.70;99.90
3190;DHT22;1606;51.946;10.558;2022-12-05T00:18:58;5.50;99.90
3190;DHT22;1606;51.946;10.558;2022-12-05T00:21:28;5.60;99.90
3190;DHT22;1606;51.946;10.558;2022-12-05T00:23:57;5.50;99.90
3190;DHT22;1606;51.946;10.558;2022-12-05T00:26:26;5.50;99.90
3190;DHT22;1606;51.946;10.558;2022-12-05T00:28:55;5.60;99.90
3190;DHT22;1606;51.946;10.558;2022-12-05T00:31:24;5.70;99.90
3190;DHT22;1606;51.946;10.558;2022-12-05T00:33:54;5.80;99.90
3190;DHT22;1606;51.946;10.558;2022-12-05T00:36:23;5.70;99.90
3190;DHT22;1606;51.946;10.558;2022-12-05T00:38:52;5.70;99.90
3190;DHT22;1606;51.946;10.558;2022-12-05T00:41:22;5.60;99.90
3190;DHT22;1606;51.946;10.558;2022-12-05T00:43:51;5.70;99.90
3190;DHT22;1606;51.946;10.558;2022-12-05T00:46:21;5.60;99.90
3190;DHT22;1606;51.946;10.558;2022-12-05T00:48:50;5.70;99.90
3190;DHT22;1606;51.946;10.558;2022-12-05T00:51:22;5.70;99.90
3190;DHT22;1606;51.946;10.558;2022-12-05T00:53:53;5.70;99.90
3190;DHT22;1606;51.946;10.558;2022-12-05T00:56:22;5.70;99.90
3190;DHT22;1606;51.946;10.558;2022-12-05T00:58:52;5.80;99.90
3190;DHT22;1606;51.946;10.558;2022-12-05T01:01:22;5.80;99.90
3190;DHT22;1606;51.946;10.558;2022-12-05T01:03:52;5.80;99.90
3190;DHT22;1606;51.946;10.558;2022-12-05T01:06:22;5.80;99.90
3190;DHT22;1606;51.946;10.558;2022-12-05T01:08:51;5.80;99.90
3190;DHT22;1606;51.946;10.558;2022-12-05T01:11:19;5.80;99.90
3190;DHT22;1606;51.946;10.558;2022-12-05T01:13:47;5.80;99.90
3190;DHT22;1606;51.946;10.558;2022-12-05T01:16:17;5.80;99.90
3190;DHT22;1606;51.946;10.558;2022-12-05T01:18:46;5.80;99.90
3190;DHT22;1606;51.946;10.558;2022-12-05T01:21:14;5.90;99.90
3190;DHT22;1606;51.946;10.558;2022-12-05T01:23:43;5.80;99.90
3190;DHT22;1606;51.946;10.558;2022-12-05T01:26:13;5.80;99.90
3190;DHT22;1606;51.946;10.558;2022-12-05T01:28:41;5.90;99.90
3190;DHT22;1606;51.946;10.558;2022-12-05T01:31:16;5.90;99.90
3190;DHT22;1606;51.946;10.558;2022-12-05T01:33:45;5.90;99.90
3190;DHT22;1606;51.946;10.558;2022-12-05T01:36:13;5.80;99.90
3190;DHT22;1606;51.946;10.558;2022-12-05T01:38:43;5.70;99.90
3190;DHT22;1606;51.946;10.558;2022-12-05T01:41:14;5.70;99.90
3190;DHT22;1606;51.946;10.558;2022-12-05T01:43:56;5.80;99.90
3190;DHT22;1606;51.946;10.558;2022-12-05T01:46:25;5.80;99.90
3190;DHT22;1606;51.946;10.558;2022-12-05T01:49:00;5.80;99.90
3190;DHT22;1606;51.946;10.558;2022-12-05T01:51:29;5.80;99.90
3190;DHT22;1606;51.946;10.558;2022-12-05T01:53:58;5.80;99.90
3190;DHT22;1606;51.946;10.558;2022-12-05T01:56:27;5.90;99.90
3190;DHT22;1606;51.946;10.558;2022-12-05T01:58:55;5.80;99.90
3190;DHT22;1606;51.946;10.558;2022-12-05T02:01:23;5.80;99.90
3190;DHT22;1606;51.946;10.558;2022-12-05T02:03:55;5.80;99.90
3190;DHT22;1606;51.946;10.558;2022-12-05T02:06:24;5.80;99.90
3190;DHT22;1606;51.946;10.558;2022-12-05T02:08:53;5.80;99.90
3190;DHT22;1606;51.946;10.558;2022-12-05T02:11:24;5.90;99.90
3190;DHT22;1606;51.946;10.558;2022-12-05T02:14:03;5.90;99.90
3190;DHT22;1606;51.946;10.558;2022-12-05T02:16:51;5.90;99.90
3190;DHT22;1606;51.946;10.558;2022-12-05T02:19:52;5.80;99.90
3190;DHT22;1606;51.946;10.558;2022-12-05T02:22:46;6.00;99.90
3190;DHT22;1606;51.946;10.558;2022-12-05T02:28:44;5.90;99.90
3190;DHT22;1606;51.946;10.558;2022-12-05T02:31:21;5.90;99.90
3190;DHT22;1606;51.946;10.558;2022-12-05T02:33:57;5.90;99.90
3190;DHT22;1606;51.946;10.558;2022-12-05T02:36:33;5.90;99.90
3190;DHT22;1606;51.946;10.558;2022-12-05T02:39:07;5.90;99.90
3190;DHT22;1606;51.946;10.558;2022-12-05T02:41:44;6.00;99.90
3190;DHT22;1606;51.946;10.558;2022-12-05T02:44:14;6.00;99.90
3190;DHT22;1606;51.946;10.558;2022-12-05T02:46:46;6.00;99.90
3190;DHT22;1606;51.946;10.558;2022-12-05T02:49:20;5.90;99.90
3190;DHT22;1606;51.946;10.558;2022-12-05T02:51:54;5.90;99.90
3190;DHT22;1606;51.946;10.558;2022-12-05T02:54:26;5.80;99.90
3190;DHT22;1606;51.946;10.558;2022-12-05T02:56:56;5.90;99.90
3190;DHT22;1606;51.946;10.558;2022-12-05T02:59:25;5.80;99.90
3190;DHT22;1606;51.946;10.558;2022-12-05T03:01:54;5.70;99.90
3190;DHT22;1606;51.946;10.558;2022-12-05T03:04:23;5.70;99.90
3190;DHT22;1606;51.946;10.558;2022-12-05T03:06:54;5.70;99.90
3190;DHT22;1606;51.946;10.558;2022-12-05T03:09:29;5.70;99.90
3190;DHT22;1606;51.946;10.558;2022-12-05T03:12:02;5.60;99.90
3190;DHT22;1606;51.946;10.558;2022-12-05T03:14:37;5.60;99.90
3190;DHT22;1606;51.946;10.558;2022-12-05T03:17:10;5.70;99.90
3190;DHT22;1606;51.946;10.558;2022-12-05T03:19:45;5.70;99.90
3190;DHT22;1606;51.946;10.558;2022-12-05T03:22:21;5.80;99.90
3190;DHT22;1606;51.946;10.558;2022-12-05T03:24:51;5.80;99.90
3190;DHT22;1606;51.946;10.558;2022-12-05T03:27:23;5.70;99.90
3190;DHT22;1606;51.946;10.558;2022-12-05T03:29:55;5.70;99.90
3190;DHT22;1606;51.946;10.558;2022-12-05T03:32:30;5.80;99.90
3190;DHT22;1606;51.946;10.558;2022-12-05T03:35:04;5.80;99.90
3190;DHT22;1606;51.946;10.558;2022-12-05T03:37:40;5.80;99.90
3190;DHT22;1606;51.946;10.558;2022-12-05T03:40:13;5.80;99.90
3190;DHT22;1606;51.946;10.558;2022-12-05T03:42:49;5.80;99.90
3190;DHT22;1606;51.946;10.558;2022-12-05T03:45:24;5.70;99.90
3190;DHT22;1606;51.946;10.558;2022-12-05T03:48:04;5.70;99.90
3190;DHT22;1606;51.946;10.558;2022-12-05T03:50:37;5.70;99.90
3190;DHT22;1606;51.946;10.558;2022-12-05T03:53:09;5.70;99.90
3190;DHT22;1606;51.946;10.558;2022-12-05T03:55:49;5.70;99.90
3190;DHT22;1606;51.946;10.558;2022-12-05T03:58:25;5.60;99.90
3190;DHT22;1606;51.946;10.558;2022-12-05T04:00:56;5.60;99.90
3190;DHT22;1606;51.946;10.558;2022-12-05T04:03:30;5.70;99.90
3190;DHT22;1606;51.946;10.558;2022-12-05T04:06:10;5.70;99.90
3190;DHT22;1606;51.946;10.558;2022-12-05T04:08:43;5.70;99.90
3190;DHT22;1606;51.946;10.558;2022-12-05T04:11:17;5.70;99.90
3190;DHT22;1606;51.946;10.558;2022-12-05T04:13:49;5.70;99.90
3190;DHT22;1606;51.946;10.558;2022-12-05T04:16:21;5.70;99.90
3190;DHT22;1606;51.946;10.558;2022-12-05T04:19:14;5.70;99.90
3190;DHT22;1606;51.946;10.558;2022-12-05T04:21:46;5.70;99.90
3190;DHT22;1606;51.946;10.558;2022-12-05T04:24:17;5.80;99.90
3190;DHT22;1606;51.946;10.558;2022-12-05T04:27:09;5.90;99.90
3190;DHT22;1606;51.946;10.558;2022-12-05T04:29:43;5.80;99.90
3190;DHT22;1606;51.946;10.558;2022-12-05T04:32:12;5.90;99.90
3190;DHT22;1606;51.946;10.558;2022-12-05T04:34:46;6.00;99.90
3190;DHT22;1606;51.946;10.558;2022-12-05T04:37:19;6.00;99.90
3190;DHT22;1606;51.946;10.558;2022-12-05T04:39:55;6.00;99.90
3190;DHT22;1606;51.946;10.558;2022-12-05T04:42:26;6.00;99.90
3190;DHT22;1606;51.946;10.558;2022-12-05T04:44:58;6.00;99.90
3190;DHT22;1606;51.946;10.558;2022-12-05T04:47:32;5.90;99.90
3190;DHT22;1606;51.946;10.558;2022-12-05T04:50:06;6.00;99.90
3190;DHT22;1606;51.946;10.558;2022-12-05T04:52:35;6.00;99.90
3190;DHT22;1606;51.946;10.558;2022-12-05T04:55:08;5.90;99.90
3190;DHT22;1606;51.946;10.558;2022-12-05T04:57:41;5.80;99.90
3190;DHT22;1606;51.946;10.558;2022-12-05T05:00:11;5.80;99.90
3190;DHT22;1606;51.946;10.558;2022-12-05T05:02:43;5.80;99.90
3190;DHT22;1606;51.946;10.558;2022-12-05T05:05:16;5.90;99.90
3190;DHT22;1606;51.946;10.558;2022-12-05T05:07:46;5.90;99.90
3190;DHT22;1606;51.946;10.558;2022-12-05T05:10:18;5.90;99.90
3190;DHT22;1606;51.946;10.558;2022-12-05T05:12:48;5.90;99.90
3190;DHT22;1606;51.946;10.558;2022-12-05T05:15:16;5.90;99.90
3190;DHT22;1606;51.946;10.558;2022-12-05T05:17:44;6.00;99.90
3190;DHT22;1606;51.946;10.558;2022-12-05T05:20:11;6.00;99.90
3190;DHT22;1606;51.946;10.558;2022-12-05T05:22:55;6.00;99.90
3190;DHT22;1606;51.946;10.558;2022-12-05T05:25:23;6.00;99.90
3190;DHT22;1606;51.946;10.558;2022-12-05T05:27:53;6.10;99.90
3190;DHT22;1606;51.946;10.558;2022-12-05T05:30:23;6.00;99.90
3190;DHT22;1606;51.946;10.558;2022-12-05T05:32:51;6.00;99.90
3190;DHT22;1606;51.946;10.558;2022-12-05T05:35:19;5.90;99.90
3190;DHT22;1606;51.946;10.558;2022-12-05T05:37:47;5.80;99.90
3190;DHT22;1606;51.946;10.558;2022-12-05T05:40:16;5.80;99.90
3190;DHT22;1606;51.946;10.558;2022-12-05T05:42:45;5.80;99.90
3190;DHT22;1606;51.946;10.558;2022-12-05T05:45:14;5.80;99.90
3190;DHT22;1606;51.946;10.558;2022-12-05T05:47:43;5.80;99.90
3190;DHT22;1606;51.946;10.558;2022-12-05T05:50:11;5.80;99.90
3190;DHT22;1606;51.946;10.558;2022-12-05T05:52:46;5.80;99.90
3190;DHT22;1606;51.946;10.558;2022-12-05T05:55:16;5.70;99.90
3190;DHT22;1606;51.946;10.558;2022-12-05T05:57:44;5.70;99.90
3190;DHT22;1606;51.946;10.558;2022-12-05T06:00:13;5.70;99.90
3190;DHT22;1606;51.946;10.558;2022-12-05T06:02:41;5.60;99.90
3190;DHT22;1606;51.946;10.558;2022-12-05T06:05:09;5.60;99.90
3190;DHT22;1606;51.946;10.558;2022-12-05T06:07:37;5.70;99.90
3190;DHT22;1606;51.946;10.558;2022-12-05T06:10:06;5.80;99.90
3190;DHT22;1606;51.946;10.558;2022-12-05T06:12:35;5.80;99.90
3190;DHT22;1606;51.946;10.558;2022-12-05T06:15:04;5.80;99.90
3190;DHT22;1606;51.946;10.558;2022-12-05T06:17:32;5.80;99.90
3190;DHT22;1606;51.946;10.558;2022-12-05T06:20:00;5.90;99.90
3190;DHT22;1606;51.946;10.558;2022-12-05T06:22:28;6.00;99.90
3190;DHT22;1606;51.946;10.558;2022-12-05T06:24:57;6.00;99.90
3190;DHT22;1606;51.946;10.558;2022-12-05T06:27:25;6.00;99.90
3190;DHT22;1606;51.946;10.558;2022-12-05T06:29:57;6.00;99.90
3190;DHT22;1606;51.946;10.558;2022-12-05T06:32:27;5.90;99.90
3190;DHT22;1606;51.946;10.558;2022-12-05T06:34:55;5.80;99.90
3190;DHT22;1606;51.946;10.558;2022-12-05T06:37:23;5.90;99.90
3190;DHT22;1606;51.946;10.558;2022-12-05T06:39:51;5.90;99.90
3190;DHT22;1606;51.946;10.558;2022-12-05T06:42:19;5.90;99.90
3190;DHT22;1606;51.946;10.558;2022-12-05T06:44:47;5.80;99.90
3190;DHT22;1606;51.946;10.558;2022-12-05T06:47:16;5.80;99.90
3190;DHT22;1606;51.946;10.558;2022-12-05T06:49:44;5.90;99.90
3190;DHT22;1606;51.946;10.558;2022-12-05T06:52:12;5.90;99.90
3190;DHT22;1606;51.946;10.558;2022-12-05T06:54:40;5.90;99.90
3190;DHT22;1606;51.946;10.558;2022-12-05T06:57:08;5.80;99.90
3190;DHT22;1606;51.946;10.558;2022-12-05T06:59:36;5.80;99.90
3190;DHT22;1606;51.946;10.558;2022-12-05T07:02:04;5.80;99.90
3190;DHT22;1606;51.946;10.558;2022-12-05T07:04:35;5.80;99.90
3190;DHT22;1606;51.946;10.558;2022-12-05T07:07:02;5.80;99.90
3190;DHT22;1606;51.946;10.558;2022-12-05T07:09:30;5.90;99.90
3190;DHT22;1606;51.946;10.558;2022-12-05T07:12:15;5.90;99.90
3190;DHT22;1606;51.946;10.558;2022-12-05T07:14:43;5.90;99.90
3190;DHT22;1606;51.946;10.558;2022-12-05T07:17:15;5.90;99.90
3190;DHT22;1606;51.946;10.558;2022-12-05T07:19:46;5.90;99.90
3190;DHT22;1606;51.946;10.558;2022-12-05T07:22:14;5.90;99.90
3190;DHT22;1606;51.946;10.558;2022-12-05T07:24:42;5.80;99.90
3190;DHT22;1606;51.946;10.558;2022-12-05T07:27:10;5.80;99.90
3190;DHT22;1606;51.946;10.558;2022-12-05T07:29:38;5.90;99.90
3190;DHT22;1606;51.946;10.558;2022-12-05T07:32:07;5.80;99.90
3190;DHT22;1606;51.946;10.558;2022-12-05T07:34:35;5.80;99.90
3190;DHT22;1606;51.946;10.558;2022-12-05T07:37:05;5.90;99.90
3190;DHT22;1606;51.946;10.558;2022-12-05T07:39:33;5.80;99.90
3190;DHT22;1606;51.946;10.558;2022-12-05T07:42:01;5.90;99.90
3190;DHT22;1606;51.946;10.558;2022-12-05T07:44:29;5.90;99.90
3190;DHT22;1606;51.946;10.558;2022-12-05T07:46:58;6.00;99.90
3190;DHT22;1606;51.946;10.558;2022-12-05T07:49:26;5.90;99.90
3190;DHT22;1606;51.946;10.558;2022-12-05T07:51:53;6.00;99.90
3190;DHT22;1606;51.946;10.558;2022-12-05T07:54:25;6.00;99.90
3190;DHT22;1606;51.946;10.558;2022-12-05T07:56:53;6.00;99.90
3190;DHT22;1606;51.946;10.558;2022-12-05T07:59:21;5.90;99.90
3190;DHT22;1606;51.946;10.558;2022-12-05T08:01:49;5.90;99.90
3190;DHT22;1606;51.946;10.558;2022-12-05T08:04:18;5.80;99.90
3190;DHT22;1606;51.946;10.558;2022-12-05T08:06:46;5.80;99.90
3190;DHT22;1606;51.946;10.558;2022-12-05T08:09:14;5.80;99.90
3190;DHT22;1606;51.946;10.558;2022-12-05T08:11:43;5.80;99.90
3190;DHT22;1606;51.946;10.558;2022-12-05T08:14:18;5.80;99.90
3190;DHT22;1606;51.946;10.558;2022-12-05T08:16:46;5.80;99.90
3190;DHT22;1606;51.946;10.558;2022-12-05T08:19:14;5.80;99.90
3190;DHT22;1606;51.946;10.558;2022-12-05T08:21:42;5.90;99.90
3190;DHT22;1606;51.946;10.558;2022-12-05T08:24:11;6.00;99.90
3190;DHT22;1606;51.946;10.558;2022-12-05T08:26:39;5.90;99.90
3190;DHT22;1606;51.946;10.558;2022-12-05T08:29:10;5.80;99.90
3190;DHT22;1606;51.946;10.558;2022-12-05T08:31:39;5.90;99.90
3190;DHT22;1606;51.946;10.558;2022-12-05T08:34:10;5.80;99.90
3190;DHT22;1606;51.946;10.558;2022-12-05T08:36:43;5.80;99.90
3190;DHT22;1606;51.946;10.558;2022-12-05T08:39:13;5.90;99.90
3190;DHT22;1606;51.946;10.558;2022-12-05T08:41:42;6.00;99.90
3190;DHT22;1606;51.946;10.558;2022-12-05T08:44:12;6.10;99.90
3190;DHT22;1606;51.946;10.558;2022-12-05T08:46:43;6.00;99.90
3190;DHT22;1606;51.946;10.558;2022-12-05T08:49:12;5.90;99.90
3190;DHT22;1606;51.946;10.558;2022-12-05T08:51:40;5.80;99.90
3190;DHT22;1606;51.946;10.558;2022-12-05T08:54:08;5.80;99.90
3190;DHT22;1606;51.946;10.558;2022-12-05T08:56:36;5.70;99.90
3190;DHT22;1606;51.946;10.558;2022-12-05T08:59:05;5.70;99.90
3190;DHT22;1606;51.946;10.558;2022-12-05T09:01:34;5.70;99.90
3190;DHT22;1606;51.946;10.558;2022-12-05T09:04:05;5.70;99.90
3190;DHT22;1606;51.946;10.558;2022-12-05T09:06:34;5.70;99.90
3190;DHT22;1606;51.946;10.558;2022-12-05T09:09:05;5.70;99.90
3190;DHT22;1606;51.946;10.558;2022-12-05T09:11:35;5.80;99.90
3190;DHT22;1606;51.946;10.558;2022-12-05T09:14:04;5.70;99.90
3190;DHT22;1606;51.946;10.558;2022-12-05T09:16:34;5.70;99.90
3190;DHT22;1606;51.946;10.558;2022-12-05T09:19:07;5.70;99.90
3190;DHT22;1606;51.946;10.558;2022-12-05T09:21:37;5.70;99.90
3190;DHT22;1606;51.946;10.558;2022-12-05T09:24:05;5.70;99.90
3190;DHT22;1606;51.946;10.558;2022-12-05T09:26:33;5.70;99.90
3190;DHT22;1606;51.946;10.558;2022-12-05T09:29:01;5.70;99.90
3190;DHT22;1606;51.946;10.558;2022-12-05T09:31:29;5.70;99.90
3190;DHT22;1606;51.946;10.558;2022-12-05T09:33:59;5.80;99.90
3190;DHT22;1606;51.946;10.558;2022-12-05T09:36:29;5.80;99.90
3190;DHT22;1606;51.946;10.558;2022-12-05T09:38:59;5.80;99.90
3190;DHT22;1606;51.946;10.558;2022-12-05T09:41:55;5.90;99.90
3190;DHT22;1606;51.946;10.558;2022-12-05T09:44:52;6.00;99.90
3190;DHT22;1606;51.946;10.558;2022-12-05T09:47:31;6.10;99.90
3190;DHT22;1606;51.946;10.558;2022-12-05T09:50:14;6.10;99.90
3190;DHT22;1606;51.946;10.558;2022-12-05T09:52:52;6.10;99.90
3190;DHT22;1606;51.946;10.558;2022-12-05T09:55:21;6.10;99.90
3190;DHT22;1606;51.946;10.558;2022-12-05T09:57:51;6.00;99.90
3190;DHT22;1606;51.946;10.558;2022-12-05T10:00:19;5.90;99.90
3190;DHT22;1606;51.946;10.558;2022-12-05T10:02:56;5.90;99.90
3190;DHT22;1606;51.946;10.558;2022-12-05T10:05:31;5.90;99.90
3190;DHT22;1606;51.946;10.558;2022-12-05T10:08:07;6.00;99.90
3190;DHT22;1606;51.946;10.558;2022-12-05T10:10:44;6.00;99.90
3190;DHT22;1606;51.946;10.558;2022-12-05T10:13:27;6.00;99.90
3190;DHT22;1606;51.946;10.558;2022-12-05T10:15:59;5.90;99.90
3190;DHT22;1606;51.946;10.558;2022-12-05T10:18:32;5.90;99.90
3190;DHT22;1606;51.946;10.558;2022-12-05T10:21:13;5.90;99.90
3190;DHT22;1606;51.946;10.558;2022-12-05T10:23:50;6.00;99.90
3190;DHT22;1606;51.946;10.558;2022-12-05T10:26:27;6.10;99.90
3190;DHT22;1606;51.946;10.558;2022-12-05T10:28:59;6.10;99.90
3190;DHT22;1606;51.946;10.558;2022-12-05T10:31:31;6.10;99.90
3190;DHT22;1606;51.946;10.558;2022-12-05T10:34:03;5.80;99.90
3190;DHT22;1606;51.946;10.558;2022-12-05T10:36:34;5.80;99.90
3190;DHT22;1606;51.946;10.558;2022-12-05T10:39:02;5.80;99.90
3190;DHT22;1606;51.946;10.558;2022-12-05T10:41:37;5.80;99.90
3190;DHT22;1606;51.946;10.558;2022-12-05T10:44:05;5.80;99.90
3190;DHT22;1606;51.946;10.558;2022-12-05T10:46:32;5.80;99.90
3190;DHT22;1606;51.946;10.558;2022-12-05T10:49:00;5.70;99.90
3190;DHT22;1606;51.946;10.558;2022-12-05T10:51:29;5.60;99.90
3190;DHT22;1606;51.946;10.558;2022-12-05T10:54:14;5.60;99.90
3190;DHT22;1606;51.946;10.558;2022-12-05T10:56:45;5.60;99.90
3190;DHT22;1606;51.946;10.558;2022-12-05T10:59:15;5.50;99.90
3190;DHT22;1606;51.946;10.558;2022-12-05T11:01:46;5.40;99.90
3190;DHT22;1606;51.946;10.558;2022-12-05T11:04:21;5.30;99.90
3190;DHT22;1606;51.946;10.558;2022-12-05T11:06:52;5.40;99.90
3190;DHT22;1606;51.946;10.558;2022-12-05T11:09:24;5.50;99.90
3190;DHT22;1606;51.946;10.558;2022-12-05T11:12:03;5.50;99.90
3190;DHT22;1606;51.946;10.558;2022-12-05T11:14:32;5.40;99.90
3190;DHT22;1606;51.946;10.558;2022-12-05T11:17:03;5.20;99.90
3190;DHT22;1606;51.946;10.558;2022-12-05T11:19:32;5.30;99.90
3190;DHT22;1606;51.946;10.558;2022-12-05T11:22:02;5.40;99.90
3190;DHT22;1606;51.946;10.558;2022-12-05T11:24:33;5.50;99.90
3190;DHT22;1606;51.946;10.558;2022-12-05T11:27:19;5.60;99.90
3190;DHT22;1606;51.946;10.558;2022-12-05T11:29:54;5.60;99.90
3190;DHT22;1606;51.946;10.558;2022-12-05T11:32:25;5.80;99.90
3190;DHT22;1606;51.946;10.558;2022-12-05T11:34:57;5.80;99.90
3190;DHT22;1606;51.946;10.558;2022-12-05T11:37:30;5.50;99.90
3190;DHT22;1606;51.946;10.558;2022-12-05T11:40:01;5.50;99.90
3190;DHT22;1606;51.946;10.558;2022-12-05T11:42:38;5.60;99.90
3190;DHT22;1606;51.946;10.558;2022-12-05T11:45:32;5.80;99.90
3190;DHT22;1606;51.946;10.558;2022-12-05T11:48:14;5.90;99.90
3190;DHT22;1606;51.946;10.558;2022-12-05T11:50:52;5.90;99.90
3190;DHT22;1606;51.946;10.558;2022-12-05T11:53:51;5.90;99.90
3190;DHT22;1606;51.946;10.558;2022-12-05T11:56:34;6.00;99.90
3190;DHT22;1606;51.946;10.558;2022-12-05T11:59:21;5.90;99.90
3190;DHT22;1606;51.946;10.558;2022-12-05T12:02:03;5.90;99.90
3190;DHT22;1606;51.946;10.558;2022-12-05T12:04:52;5.90;99.90
3190;DHT22;1606;51.946;10.558;2022-12-05T12:07:38;5.90;99.90
3190;DHT22;1606;51.946;10.558;2022-12-05T12:10:17;5.80;99.90
3190;DHT22;1606;51.946;10.558;2022-12-05T12:12:57;5.90;99.90
3190;DHT22;1606;51.946;10.558;2022-12-05T12:15:50;5.90;99.90
3190;DHT22;1606;51.946;10.558;2022-12-05T12:18:40;5.90;99.90
3190;DHT22;1606;51.946;10.558;2022-12-05T12:21:16;5.90;99.90
3190;DHT22;1606;51.946;10.558;2022-12-05T12:23:58;5.90;99.90
3190;DHT22;1606;51.946;10.558;2022-12-05T12:26:37;6.00;99.90
3190;DHT22;1606;51.946;10.558;2022-12-05T12:29:16;6.00;99.90
3190;DHT22;1606;51.946;10.558;2022-12-05T12:31:54;6.00;99.90
3190;DHT22;1606;51.946;10.558;2022-12-05T12:34:47;6.00;99.90
3190;DHT22;1606;51.946;10.558;2022-12-05T12:37:23;6.10;99.90
3190;DHT22;1606;51.946;10.558;2022-12-05T12:40:00;6.00;99.90
3190;DHT22;1606;51.946;10.558;2022-12-05T12:42:37;6.00;99.90
3190;DHT22;1606;51.946;10.558;2022-12-05T12:45:35;6.10;99.90
3190;DHT22;1606;51.946;10.558;2022-12-05T12:48:14;6.10;99.90
3190;DHT22;1606;51.946;10.558;2022-12-05T12:50:45;6.10;99.90
3190;DHT22;1606;51.946;10.558;2022-12-05T12:53:30;6.10;99.90
3190;DHT22;1606;51.946;10.558;2022-12-05T12:56:08;6.10;99.90
3190;DHT22;1606;51.946;10.558;2022-12-05T12:58:46;6.00;99.90
3190;DHT22;1606;51.946;10.558;2022-12-05T13:01:26;6.10;99.90
3190;DHT22;1606;51.946;10.558;2022-12-05T13:04:01;6.00;99.90
3190;DHT22;1606;51.946;10.558;2022-12-05T13:06:36;6.00;99.90
3190;DHT22;1606;51.946;10.558;2022-12-05T13:09:15;6.20;99.90
3190;DHT22;1606;51.946;10.558;2022-12-05T13:11:46;6.20;99.90
3190;DHT22;1606;51.946;10.558;2022-12-05T13:14:17;6.10;99.90
3190;DHT22;1606;51.946;10.558;2022-12-05T13:16:52;6.00;99.90
3190;DHT22;1606;51.946;10.558;2022-12-05T13:19:27;5.90;99.90
3190;DHT22;1606;51.946;10.558;2022-12-05T13:21:57;6.00;99.90
3190;DHT22;1606;51.946;10.558;2022-12-05T13:24:26;6.00;99.90
3190;DHT22;1606;51.946;10.558;2022-12-05T13:26:58;6.00;99.90
3190;DHT22;1606;51.946;10.558;2022-12-05T13:29:31;6.10;99.90
3190;DHT22;1606;51.946;10.558;2022-12-05T13:32:02;6.10;99.90
3190;DHT22;1606;51.946;10.558;2022-12-05T13:34:45;6.10;99.90
3190;DHT22;1606;51.946;10.558;2022-12-05T13:37:23;6.10;99.90
3190;DHT22;1606;51.946;10.558;2022-12-05T13:40:24;6.00;99.90
3190;DHT22;1606;51.946;10.558;2022-12-05T13:43:13;6.00;99.90
3190;DHT22;1606;51.946;10.558;2022-12-05T13:45:50;6.00;99.90
3190;DHT22;1606;51.946;10.558;2022-12-05T13:48:24;6.00;99.90
3190;DHT22;1606;51.946;10.558;2022-12-05T13:50:55;5.90;99.90
3190;DHT22;1606;51.946;10.558;2022-12-05T13:53:28;5.90;99.90
3190;DHT22;1606;51.946;10.558;2022-12-05T13:56:00;5.90;99.90
3190;DHT22;1606;51.946;10.558;2022-12-05T13:58:44;6.00;99.90
3190;DHT22;1606;51.946;10.558;2022-12-05T14:01:47;6.00;99.90
3190;DHT22;1606;51.946;10.558;2022-12-05T14:04:45;6.00;99.90
3190;DHT22;1606;51.946;10.558;2022-12-05T14:07:38;5.90;99.90
3190;DHT22;1606;51.946;10.558;2022-12-05T14:10:07;5.90;99.90
3190;DHT22;1606;51.946;10.558;2022-12-05T14:12:49;5.80;99.90
3190;DHT22;1606;51.946;10.558;2022-12-05T14:15:25;5.90;99.90
3190;DHT22;1606;51.946;10.558;2022-12-05T14:17:56;6.00;99.90
3190;DHT22;1606;51.946;10.558;2022-12-05T14:20:34;5.90;99.90
3190;DHT22;1606;51.946;10.558;2022-12-05T14:23:20;5.90;99.90
3190;DHT22;1606;51.946;10.558;2022-12-05T14:26:01;6.00;99.90
3190;DHT22;1606;51.946;10.558;2022-12-05T14:28:44;5.90;99.90
3190;DHT22;1606;51.946;10.558;2022-12-05T14:31:26;5.50;99.90
3190;DHT22;1606;51.946;10.558;2022-12-05T14:34:08;5.20;99.90
3190;DHT22;1606;51.946;10.558;2022-12-05T14:36:38;5.30;99.90
3190;DHT22;1606;51.946;10.558;2022-12-05T14:39:21;5.50;99.90
3190;DHT22;1606;51.946;10.558;2022-12-05T14:41:56;5.60;99.90
3190;DHT22;1606;51.946;10.558;2022-12-05T14:44:24;5.70;99.90
3190;DHT22;1606;51.946;10.558;2022-12-05T14:46:58;5.70;99.90
3190;DHT22;1606;51.946;10.558;2022-12-05T14:49:49;5.80;99.90
3190;DHT22;1606;51.946;10.558;2022-12-05T14:52:22;5.80;99.90
3190;DHT22;1606;51.946;10.558;2022-12-05T14:54:52;5.90;99.90
3190;DHT22;1606;51.946;10.558;2022-12-05T14:57:22;5.90;99.90
3190;DHT22;1606;51.946;10.558;2022-12-05T14:59:53;5.90;99.90
3190;DHT22;1606;51.946;10.558;2022-12-05T15:02:24;5.90;99.90
3190;DHT22;1606;51.946;10.558;2022-12-05T15:05:01;5.90;99.90
3190;DHT22;1606;51.946;10.558;2022-12-05T15:07:35;5.90;99.90
3190;DHT22;1606;51.946;10.558;2022-12-05T15:10:06;5.90;99.90
3190;DHT22;1606;51.946;10.558;2022-12-05T15:12:42;6.00;99.90
3190;DHT22;1606;51.946;10.558;2022-12-05T15:15:16;6.10;99.90
3190;DHT22;1606;51.946;10.558;2022-12-05T15:17:49;6.00;99.90
3190;DHT22;1606;51.946;10.558;2022-12-05T15:20:26;5.90;99.90
3190;DHT22;1606;51.946;10.558;2022-12-05T15:26:17;6.00;99.90
3190;DHT22;1606;51.946;10.558;2022-12-05T15:29:08;6.00;99.90
3190;DHT22;1606;51.946;10.558;2022-12-05T15:31:42;6.00;99.90
3190;DHT22;1606;51.946;10.558;2022-12-05T15:34:14;6.00;99.90
3190;DHT22;1606;51.946;10.558;2022-12-05T15:36:47;6.00;99.90
3190;DHT22;1606;51.946;10.558;2022-12-05T15:39:20;6.00;99.90
3190;DHT22;1606;51.946;10.558;2022-12-05T15:41:51;6.00;99.90
3190;DHT22;1606;51.946;10.558;2022-12-05T15:44:20;6.00;99.90
3190;DHT22;1606;51.946;10.558;2022-12-05T15:46:55;5.90;99.90
3190;DHT22;1606;51.946;10.558;2022-12-05T15:49:26;6.00;99.90
3190;DHT22;1606;51.946;10.558;2022-12-05T15:51:57;6.10;99.90
3190;DHT22;1606;51.946;10.558;2022-12-05T15:54:32;6.00;99.90
3190;DHT22;1606;51.946;10.558;2022-12-05T15:57:04;6.00;99.90
3190;DHT22;1606;51.946;10.558;2022-12-05T15:59:38;6.00;99.90
3190;DHT22;1606;51.946;10.558;2022-12-05T16:02:11;6.00;99.90
3190;DHT22;1606;51.946;10.558;2022-12-05T16:04:44;6.10;99.90
3190;DHT22;1606;51.946;10.558;2022-12-05T16:07:13;6.10;99.90
3190;DHT22;1606;51.946;10.558;2022-12-05T16:09:44;6.10;99.90
3190;DHT22;1606;51.946;10.558;2022-12-05T16:12:23;6.10;99.90
3190;DHT22;1606;51.946;10.558;2022-12-05T16:14:54;6.10;99.90
3190;DHT22;1606;51.946;10.558;2022-12-05T16:17:28;6.00;99.90
3190;DHT22;1606;51.946;10.558;2022-12-05T16:20:19;6.00;99.90
3190;DHT22;1606;51.946;10.558;2022-12-05T16:22:49;6.00;99.90
3190;DHT22;1606;51.946;10.558;2022-12-05T16:25:22;6.10;99.90
3190;DHT22;1606;51.946;10.558;2022-12-05T16:28:02;6.10;99.90
3190;DHT22;1606;51.946;10.558;2022-12-05T16:30:31;6.00;99.90
3190;DHT22;1606;51.946;10.558;2022-12-05T16:33:01;6.10;99.90
3190;DHT22;1606;51.946;10.558;2022-12-05T16:35:32;6.10;99.90
3190;DHT22;1606;51.946;10.558;2022-12-05T16:38:19;6.00;99.90
3190;DHT22;1606;51.946;10.558;2022-12-05T16:40:56;5.90;99.90
3190;DHT22;1606;51.946;10.558;2022-12-05T16:43:27;6.00;99.90
3190;DHT22;1606;51.946;10.558;2022-12-05T16:49:21;5.90;99.90
3190;DHT22;1606;51.946;10.558;2022-12-05T16:51:58;5.80;99.90